createdAt,value
2023-03-23T00:01:48.340Z,586.00
2023-03-23T00:05:48.313Z,587.00
2023-03-23T00:09:48.334Z,585.00
2023-03-23T00:13:48.408Z,591.00
2023-03-23T00:17:48.441Z,590.00
2023-03-23T00:21:48.534Z,592.00
2023-03-23T00:25:48.497Z,590.00
2023-03-23T00:29:48.569Z,591.00
2023-03-23T00:33:48.552Z,587.00
2023-03-23T00:37:48.608Z,583.00
2023-03-23T00:41:48.657Z,576.00
2023-03-23T00:45:48.739Z,582.00
2023-03-23T00:49:48.908Z,581.00
2023-03-23T00:53:48.874Z,580.00
2023-03-23T00:57:48.916Z,576.00
2023-03-23T01:01:48.894Z,579.00
2023-03-23T01:05:48.993Z,580.00
2023-03-23T01:09:49.028Z,576.00
2023-03-23T01:13:49.186Z,576.00
2023-03-23T01:17:49.203Z,580.00
2023-03-23T01:21:49.230Z,583.00
2023-03-23T01:25:49.301Z,589.00
2023-03-23T01:29:49.388Z,587.00
2023-03-23T01:33:49.411Z,588.00
2023-03-23T01:37:49.502Z,583.00
2023-03-23T01:41:49.561Z,579.00
2023-03-23T01:45:49.652Z,580.00
2023-03-23T01:49:49.738Z,583.00
2023-03-23T01:53:49.822Z,585.00
2023-03-23T01:57:49.900Z,583.00
2023-03-23T02:01:50.010Z,576.00
2023-03-23T02:05:50.093Z,577.00
2023-03-23T02:09:50.167Z,578.00
2023-03-23T02:13:50.300Z,576.00
2023-03-23T02:17:50.381Z,581.00
2023-03-23T02:21:50.464Z,578.00
2023-03-23T02:25:50.588Z,580.00
2023-03-23T02:29:50.713Z,583.00
2023-03-23T02:33:50.801Z,584.00
2023-03-23T02:37:50.936Z,578.00
2023-03-23T02:41:51.020Z,580.00
2023-03-23T02:45:51.113Z,578.00
2023-03-23T02:49:51.222Z,581.00
2023-03-23T02:53:51.345Z,580.00
2023-03-23T02:57:51.472Z,574.00
2023-03-23T03:01:51.606Z,571.00
2023-03-23T03:05:51.732Z,572.00
2023-03-23T03:09:51.871Z,573.00
2023-03-23T03:13:51.950Z,577.00
2023-03-23T03:17:52.114Z,577.00
2023-03-23T03:21:52.280Z,579.00
2023-03-23T03:25:52.392Z,577.00
2023-03-23T03:29:52.543Z,573.00
2023-03-23T03:33:52.640Z,574.00
2023-03-23T03:37:52.857Z,572.00
2023-03-23T03:41:52.931Z,574.00
2023-03-23T03:45:53.143Z,577.00
2023-03-23T03:49:53.347Z,578.00
2023-03-23T03:53:53.497Z,582.00
2023-03-23T03:57:53.632Z,580.00
2023-03-23T04:01:53.783Z,577.00
2023-03-23T04:05:58.427Z,578.00
2023-03-23T04:09:53.916Z,579.00
2023-03-23T04:13:53.934Z,576.00
2023-03-23T04:17:53.862Z,568.00
2023-03-23T04:21:54.114Z,563.00
2023-03-23T04:25:54.243Z,566.00
2023-03-23T04:29:54.385Z,572.00
2023-03-23T04:33:58.611Z,570.00
2023-03-23T04:37:55.569Z,570.00
2023-03-23T04:41:54.479Z,574.00
2023-03-23T04:45:54.467Z,572.00
2023-03-23T04:49:54.702Z,575.00
2023-03-23T04:53:54.895Z,576.00
2023-03-23T04:57:54.997Z,584.00
2023-03-23T05:01:55.187Z,584.00
2023-03-23T05:05:56.145Z,581.00
2023-03-23T05:09:55.119Z,583.00
2023-03-23T05:13:55.082Z,584.00
2023-03-23T05:17:55.306Z,588.00
2023-03-23T05:21:55.430Z,587.00
2023-03-23T05:25:55.605Z,588.00
2023-03-23T05:29:55.852Z,590.00
2023-03-23T05:33:55.961Z,594.00
2023-03-23T05:37:56.150Z,594.00
2023-03-23T05:41:57.122Z,589.00
2023-03-23T05:45:56.046Z,587.00
2023-03-23T05:49:56.110Z,584.00
2023-03-23T05:53:56.297Z,587.00
2023-03-23T05:57:56.540Z,589.00
2023-03-23T06:01:56.729Z,588.00
2023-03-23T06:05:56.893Z,587.00
2023-03-23T06:09:56.992Z,587.00
2023-03-23T06:13:57.163Z,592.00
2023-03-23T06:17:57.286Z,587.00
2023-03-23T06:21:57.410Z,589.00
2023-03-23T06:26:04.467Z,598.00
2023-03-23T06:29:58.499Z,596.00
2023-03-23T06:33:57.437Z,598.00
2023-03-23T06:37:57.394Z,649.00
2023-03-23T06:41:57.379Z,700.00
2023-03-23T06:45:57.476Z,740.00
2023-03-23T06:49:57.466Z,775.00
2023-03-23T06:53:57.396Z,819.00
2023-03-23T06:57:57.381Z,849.00
2023-03-23T07:01:57.357Z,875.00
2023-03-23T07:05:57.307Z,893.00
2023-03-23T07:09:57.265Z,909.00
2023-03-23T07:13:57.236Z,931.00
2023-03-23T07:17:57.177Z,951.00
2023-03-23T07:21:57.132Z,960.00
2023-03-23T07:25:57.207Z,973.00
2023-03-23T07:29:57.090Z,990.00
2023-03-23T07:33:57.176Z,1002.00
2023-03-23T07:37:56.982Z,1070.00
2023-03-23T07:41:57.010Z,1142.00
2023-03-23T07:45:56.939Z,1183.00
2023-03-23T07:49:56.872Z,1204.00
2023-03-23T07:53:56.840Z,1276.00
2023-03-23T07:57:56.815Z,1278.00
2023-03-23T08:01:56.814Z,1283.00
2023-03-23T08:05:56.752Z,1282.00
2023-03-23T08:09:56.710Z,1263.00
2023-03-23T08:13:56.718Z,1298.00
2023-03-23T08:17:56.651Z,1334.00
2023-03-23T08:21:56.554Z,1364.00
2023-03-23T08:25:56.513Z,1368.00
2023-03-23T08:29:56.501Z,1360.00
2023-03-23T08:33:56.549Z,1142.00
2023-03-23T08:37:56.601Z,996.00
2023-03-23T08:41:56.603Z,1071.00
2023-03-23T08:45:56.625Z,1076.00
2023-03-23T08:49:56.539Z,1106.00
2023-03-23T08:53:56.467Z,1142.00
2023-03-23T08:57:56.430Z,1181.00
2023-03-23T09:01:56.428Z,1218.00
2023-03-23T09:05:56.352Z,1224.00
2023-03-23T09:09:56.325Z,1252.00
2023-03-23T09:13:56.321Z,1281.00
2023-03-23T09:17:56.226Z,1309.00
2023-03-23T09:21:56.320Z,1282.00
2023-03-23T09:25:56.192Z,1277.00
2023-03-23T09:29:56.169Z,1216.00
2023-03-23T09:33:56.128Z,1136.00
2023-03-23T09:37:56.053Z,1079.00
2023-03-23T09:41:56.035Z,1019.00
2023-03-23T09:45:56.123Z,1017.00
2023-03-23T09:49:55.925Z,1084.00
2023-03-23T09:53:55.890Z,1130.00
2023-03-23T09:57:55.885Z,1143.00
2023-03-23T10:01:55.864Z,1156.00
2023-03-23T10:05:55.843Z,1172.00
2023-03-23T10:09:55.988Z,1182.00
2023-03-23T10:13:56.204Z,1213.00
2023-03-23T10:17:56.322Z,1217.00
2023-03-23T10:21:56.419Z,1227.00
2023-03-23T10:25:56.543Z,1251.00
2023-03-23T10:29:56.643Z,1264.00
2023-03-23T10:33:56.757Z,1266.00
2023-03-23T10:37:56.891Z,1291.00
2023-03-23T10:41:56.914Z,962.00
2023-03-23T10:46:00.405Z,1016.00
2023-03-23T10:49:56.921Z,1058.00
2023-03-23T10:53:56.818Z,1074.00
2023-03-23T10:57:56.768Z,1087.00
2023-03-23T11:01:56.728Z,1105.00
2023-03-23T11:05:56.681Z,1114.00
2023-03-23T11:09:56.681Z,1139.00
2023-03-23T11:13:56.679Z,1164.00
2023-03-23T11:17:56.761Z,1167.00
2023-03-23T11:21:56.568Z,1186.00
2023-03-23T11:25:56.540Z,1191.00
2023-03-23T11:29:58.636Z,972.00
2023-03-23T11:34:05.874Z,932.00
2023-03-23T11:37:57.417Z,806.00
2023-03-23T11:42:08.766Z,752.00
2023-03-23T11:45:57.335Z,740.00
2023-03-23T11:49:56.342Z,740.00
2023-03-23T11:53:56.333Z,727.00
2023-03-23T11:57:56.293Z,724.00
2023-03-23T12:01:56.495Z,720.00
2023-03-23T12:05:56.206Z,724.00
2023-03-23T12:09:56.288Z,747.00
2023-03-23T12:13:58.692Z,763.00
2023-03-23T12:17:56.395Z,781.00
2023-03-23T12:21:56.342Z,788.00
2023-03-23T12:25:56.509Z,762.00
2023-03-23T12:29:56.723Z,745.00
2023-03-23T12:33:56.655Z,729.00
2023-03-23T12:37:56.637Z,711.00
2023-03-23T12:41:56.590Z,695.00
2023-03-23T12:45:56.525Z,706.00
2023-03-23T12:49:56.512Z,721.00
2023-03-23T12:53:56.472Z,733.00
2023-03-23T12:57:56.403Z,738.00
2023-03-23T13:01:56.386Z,735.00
2023-03-23T13:05:56.351Z,736.00
2023-03-23T13:09:57.454Z,736.00
2023-03-23T13:13:56.307Z,736.00
2023-03-23T13:17:56.337Z,732.00
2023-03-23T13:21:56.426Z,732.00
2023-03-23T13:25:56.607Z,734.00
2023-03-23T13:29:56.693Z,719.00
2023-03-23T13:33:56.847Z,688.00
2023-03-23T13:37:57.046Z,671.00
2023-03-23T13:41:57.258Z,652.00
2023-03-23T13:45:57.407Z,635.00
2023-03-23T13:49:57.637Z,626.00
2023-03-23T13:53:57.846Z,619.00
2023-03-23T13:57:58.172Z,616.00
2023-03-23T14:01:58.268Z,606.00
2023-03-23T14:05:58.229Z,600.00
2023-03-23T14:09:58.196Z,592.00
2023-03-23T14:13:58.185Z,588.00
2023-03-23T14:17:58.184Z,591.00
2023-03-23T14:21:58.107Z,592.00
2023-03-23T14:25:58.084Z,587.00
2023-03-23T14:29:58.013Z,584.00
2023-03-23T14:33:58.013Z,586.00
2023-03-23T14:37:57.928Z,584.00
2023-03-23T14:41:57.883Z,582.00
2023-03-23T14:45:57.919Z,578.00
2023-03-23T14:49:57.867Z,579.00
2023-03-23T14:53:57.800Z,581.00
2023-03-23T14:57:57.784Z,583.00
2023-03-23T15:01:57.757Z,579.00
2023-03-23T15:05:57.675Z,577.00
2023-03-23T15:09:57.668Z,576.00
2023-03-23T15:13:57.641Z,576.00
2023-03-23T15:17:57.619Z,578.00
2023-03-23T15:21:57.535Z,576.00
2023-03-23T15:25:57.512Z,570.00
2023-03-23T15:29:57.548Z,573.00
2023-03-23T15:33:57.577Z,574.00
2023-03-23T15:37:57.663Z,576.00
2023-03-23T15:41:58.648Z,570.00
2023-03-23T15:45:57.658Z,573.00
2023-03-23T15:49:57.582Z,573.00
2023-03-23T15:54:00.141Z,572.00
2023-03-23T15:57:58.557Z,575.00
2023-03-23T16:01:57.553Z,576.00
2023-03-23T16:05:57.471Z,574.00
2023-03-23T16:09:57.406Z,570.00
2023-03-23T16:13:57.353Z,568.00
2023-03-23T16:17:57.410Z,564.00
2023-03-23T16:21:57.289Z,568.00
2023-03-23T16:25:57.352Z,566.00
2023-03-23T16:30:03.654Z,569.00
2023-03-23T16:33:58.351Z,565.00
2023-03-23T16:38:06.949Z,572.00
2023-03-23T16:41:58.249Z,571.00
2023-03-23T16:45:57.216Z,564.00
2023-03-23T16:49:57.176Z,564.00
2023-03-23T16:53:57.449Z,563.00
2023-03-23T16:58:13.054Z,569.00
2023-03-23T17:01:58.252Z,571.00
2023-03-23T17:05:57.179Z,570.00
2023-03-23T17:09:57.214Z,568.00
2023-03-23T17:13:57.424Z,570.00
2023-03-23T17:17:57.566Z,572.00
2023-03-23T17:21:57.697Z,569.00
2023-03-23T17:25:57.875Z,567.00
2023-03-23T17:29:58.222Z,569.00
2023-03-23T17:33:58.336Z,569.00
2023-03-23T17:37:58.565Z,569.00
2023-03-23T17:41:58.514Z,571.00
2023-03-23T17:45:58.484Z,570.00
2023-03-23T17:49:58.502Z,572.00
2023-03-23T17:53:58.439Z,573.00
2023-03-23T17:57:58.419Z,573.00
2023-03-23T18:01:58.380Z,571.00
2023-03-23T18:05:58.311Z,568.00
2023-03-23T18:09:58.280Z,572.00
2023-03-23T18:13:58.253Z,570.00
2023-03-23T18:17:58.258Z,575.00
2023-03-23T18:21:58.575Z,571.00
2023-03-23T18:25:58.441Z,575.00
2023-03-23T18:29:58.474Z,582.00
2023-03-23T18:33:58.441Z,596.00
2023-03-23T18:37:58.481Z,593.00
2023-03-23T18:41:58.450Z,585.00
2023-03-23T18:45:58.647Z,587.00
2023-03-23T18:49:58.642Z,589.00
2023-03-23T18:53:58.735Z,582.00
2023-03-23T18:57:58.904Z,585.00
2023-03-23T19:01:59.049Z,585.00
2023-03-23T19:05:59.183Z,586.00
2023-03-23T19:09:59.285Z,583.00
2023-03-23T19:14:03.065Z,581.00
2023-03-23T19:17:59.353Z,585.00
2023-03-23T19:22:00.133Z,588.00
2023-03-23T19:25:59.306Z,586.00
2023-03-23T19:29:59.229Z,587.00
2023-03-23T19:33:59.157Z,580.00
2023-03-23T19:37:59.156Z,584.00
2023-03-23T19:41:59.132Z,589.00
2023-03-23T19:46:00.066Z,592.00
2023-03-23T19:49:59.058Z,590.00
2023-03-23T19:53:59.106Z,592.00
2023-03-23T19:58:00.334Z,598.00
2023-03-23T20:01:58.941Z,597.00
2023-03-23T20:05:58.884Z,597.00
2023-03-23T20:09:59.123Z,597.00
2023-03-23T20:13:58.815Z,594.00
2023-03-23T20:17:58.860Z,588.00
2023-03-23T20:21:58.762Z,591.00
2023-03-23T20:25:59.065Z,589.00
2023-03-23T20:29:58.685Z,584.00
2023-03-23T20:34:00.562Z,591.00
2023-03-23T20:37:58.737Z,587.00
2023-03-23T20:41:58.716Z,585.00
2023-03-23T20:45:58.685Z,579.00
2023-03-23T20:49:58.718Z,578.00
2023-03-23T20:53:58.690Z,579.00
2023-03-23T20:57:58.663Z,582.00
2023-03-23T21:01:58.656Z,582.00
2023-03-23T21:05:58.628Z,582.00
2023-03-23T21:09:58.647Z,587.00
2023-03-23T21:13:58.679Z,585.00
2023-03-23T21:17:58.655Z,588.00
2023-03-23T21:21:58.625Z,588.00
2023-03-23T21:25:58.659Z,586.00
2023-03-23T21:29:58.634Z,586.00
2023-03-23T21:33:58.651Z,590.00
2023-03-23T21:37:59.077Z,589.00
2023-03-23T21:41:58.604Z,585.00
2023-03-23T21:45:59.154Z,585.00
2023-03-23T21:49:58.613Z,584.00
2023-03-23T21:53:58.595Z,587.00
2023-03-23T21:57:58.592Z,588.00
2023-03-23T22:01:58.671Z,589.00
2023-03-23T22:05:58.615Z,590.00
2023-03-23T22:09:58.584Z,585.00
2023-03-23T22:13:58.597Z,584.00
2023-03-23T22:17:58.710Z,583.00
2023-03-23T22:21:58.658Z,581.00
2023-03-23T22:25:58.758Z,580.00
2023-03-23T22:29:58.761Z,584.00
2023-03-23T22:33:58.781Z,587.00
2023-03-23T22:37:58.850Z,584.00
2023-03-23T22:41:58.898Z,587.00
2023-03-23T22:45:59.013Z,588.00
2023-03-23T22:49:58.986Z,581.00
2023-03-23T22:53:58.989Z,582.00
2023-03-23T22:57:59.080Z,589.00
2023-03-23T23:01:59.115Z,588.00
2023-03-23T23:05:59.170Z,586.00
2023-03-23T23:09:59.229Z,585.00
2023-03-23T23:13:59.289Z,579.00
2023-03-23T23:17:59.410Z,577.00
2023-03-23T23:22:09.315Z,580.00
2023-03-23T23:26:00.440Z,581.00
2023-03-23T23:29:59.352Z,578.00
2023-03-23T23:33:59.346Z,575.00
2023-03-23T23:37:59.283Z,579.00
2023-03-23T23:41:59.230Z,588.00
2023-03-23T23:45:59.366Z,584.00
2023-03-23T23:49:59.435Z,586.00
2023-03-23T23:53:59.495Z,584.00
2023-03-23T23:57:59.608Z,581.00
